Time;durP1;ratioP1;P1;durP2;ratioP2;P2;SDS_P1;SDS_P2;PMS_P1;PMS_P2;Temp;Humidity;BMP_temperature;BMP_pressure;BME280_temperature;BME280_humidity;BME280_pressure;Samples;Min_cycle;Max_cycle;Signal;HPM_P1;HPM_P2
2022/08/02 00:07:07;;;;;;;6.22;3.35;;;;;;;21.90;61.81;100404.66;18492003;32;20175;-55
2022/08/02 00:17:10;;;;;;;7.12;3.50;;;;;;;21.74;61.79;100385.97;18491559;32;20100;-55
2022/08/02 00:27:15;;;;;;;5.53;3.12;;;;;;;21.58;62.96;100393.81;18493047;32;20403;-55
2022/08/02 00:37:19;;;;;;;7.03;4.03;;;;;;;21.55;62.91;100401.91;18500210;32;20133;-56
2022/08/02 00:47:24;;;;;;;7.03;3.47;;;;;;;21.35;63.24;100394.91;18499731;32;20089;-56
2022/08/02 00:57:28;;;;;;;7.68;3.70;;;;;;;21.18;64.22;100401.00;18499764;32;20103;-56
2022/08/02 01:07:32;;;;;;;9.77;3.97;;;;;;;21.04;64.70;100396.31;18499340;32;20089;-56
2022/08/02 01:17:49;;;;;;;7.15;3.60;;;;;;;21.00;65.49;100405.38;18498958;32;20122;-56
2022/08/02 01:28:15;;;;;;;7.47;3.67;;;;;;;21.25;64.59;100409.56;18498770;32;20088;-56
2022/08/02 01:38:22;;;;;;;8.43;3.30;;;;;;;21.31;64.45;100409.25;18496763;32;20412;-56
2022/08/02 01:48:28;;;;;;;7.78;3.53;;;;;;;21.10;64.43;100417.28;18498175;32;20092;-56
2022/08/02 01:58:35;;;;;;;7.05;3.42;;;;;;;21.03;64.13;100416.72;18497952;32;20150;-56
2022/08/02 02:08:41;;;;;;;6.72;3.58;;;;;;;20.89;64.15;100413.81;18497767;32;20395;-56
2022/08/02 02:18:45;;;;;;;8.30;3.85;;;;;;;20.79;63.87;100429.25;18499049;32;20132;-56
2022/08/02 02:28:52;;;;;;;4.62;3.03;;;;;;;20.54;64.37;100440.94;18497076;32;20154;-56
2022/08/02 02:38:57;;;;;;;8.73;3.60;;;;;;;20.45;64.96;100451.94;18496708;32;20175;-56
2022/08/02 02:49:02;;;;;;;6.43;3.35;;;;;;;20.43;64.85;100448.50;18495845;32;20101;-56
2022/08/02 02:59:07;;;;;;;6.78;3.47;;;;;;;20.24;65.09;100457.22;18496413;32;20103;-56
2022/08/02 03:09:12;;;;;;;6.45;3.30;;;;;;;20.22;65.15;100452.00;18495430;32;20093;-56
2022/08/02 03:19:15;;;;;;;6.47;3.70;;;;;;;20.21;65.71;100462.69;18495262;32;20092;-56
2022/08/02 03:29:20;;;;;;;7.28;3.87;;;;;;;20.30;65.82;100454.34;18494310;32;20096;-56
2022/08/02 03:39:23;;;;;;;6.72;3.58;;;;;;;20.49;65.70;100451.75;18493707;32;20423;-56
2022/08/02 03:49:30;;;;;;;8.02;3.83;;;;;;;20.56;65.47;100455.00;18493131;32;20116;-56
2022/08/02 03:59:40;;;;;;;8.20;3.92;;;;;;;20.69;64.99;100465.09;18480027;32;20106;-56
2022/08/02 04:09:45;;;;;;;7.30;3.80;;;;;;;21.09;64.80;100476.59;18470304;32;20137;-56
2022/08/02 04:19:52;;;;;;;6.97;3.97;;;;;;;21.61;64.37;100475.09;18442228;32;20473;-56
2022/08/02 04:29:58;;;;;;;7.93;4.03;;;;;;;22.19;62.92;100483.88;18435832;32;20093;-56
2022/08/02 04:40:01;;;;;;;8.00;3.80;;;;;;;22.51;60.94;100478.78;18435788;32;20115;-56
2022/08/02 04:50:07;;;;;;;6.78;3.40;;;;;;;22.78;60.16;100488.94;18435436;32;20385;-56
2022/08/02 05:00:11;;;;;;;7.12;3.70;;;;;;;22.99;59.54;100481.59;18435357;32;20105;-56
2022/08/02 05:10:18;;;;;;;7.35;3.15;;;;;;;23.16;59.67;100486.97;18435212;32;20159;-56
2022/08/02 05:20:21;;;;;;;6.03;3.40;;;;;;;23.58;59.31;100482.09;18434315;32;20456;-56
2022/08/02 05:30:26;;;;;;;5.60;3.20;;;;;;;23.81;58.20;100504.78;18434239;32;20115;-56
2022/08/02 05:40:29;;;;;;;5.05;2.95;;;;;;;24.17;57.56;100524.13;18434997;32;20122;-56
2022/08/02 05:50:39;;;;;;;5.30;2.80;;;;;;;24.54;56.14;100519.31;18442239;32;20097;-56
2022/08/02 06:00:42;;;;;;;4.57;2.60;;;;;;;24.97;54.76;100529.25;18432075;32;20093;-56
2022/08/02 06:10:49;;;;;;;3.55;2.30;;;;;;;25.20;51.34;100525.16;18433265;32;20099;-56
2022/08/02 06:20:52;;;;;;;3.17;2.00;;;;;;;26.00;46.47;100544.28;18432891;32;20146;-56
2022/08/02 06:30:57;;;;;;;4.18;2.30;;;;;;;26.00;44.65;100541.59;18477145;32;20123;-56
2022/08/02 06:41:03;;;;;;;4.55;2.22;;;;;;;26.67;43.88;100559.50;18495214;32;20111;-56
2022/08/02 06:51:08;;;;;;;5.28;2.72;;;;;;;26.66;43.28;100564.94;18496371;32;20111;-56
2022/08/02 07:01:12;;;;;;;4.70;2.10;;;;;;;25.79;43.23;100562.56;18495816;32;20124;-56
2022/08/02 07:11:18;;;;;;;5.07;2.22;;;;;;;27.46;42.82;100561.25;18495499;32;20097;-56
2022/08/02 07:21:21;;;;;;;4.43;1.85;;;;;;;28.26;40.58;100551.09;18493203;32;20097;-56
2022/08/02 07:31:45;;;;;;;5.68;2.90;;;;;;;28.60;40.87;100548.53;18494247;32;20473;-56
2022/08/02 07:41:50;;;;;;;4.20;2.25;;;;;;;28.89;39.65;100548.16;18467068;32;20118;-57
2022/08/02 07:51:55;;;;;;;3.87;1.98;;;;;;;29.39;38.48;100549.66;18466449;32;20089;-56
2022/08/02 08:01:58;;;;;;;3.47;1.92;;;;;;;28.59;39.35;100541.47;18466410;32;20119;-55
2022/08/02 08:12:03;;;;;;;2.10;1.58;;;;;;;30.00;35.21;100529.53;18482696;32;20096;-55
2022/08/02 08:22:07;;;;;;;4.35;1.60;;;;;;;30.31;35.41;100529.69;18493270;32;20118;-56
2022/08/02 08:32:12;;;;;;;3.97;1.73;;;;;;;30.91;34.06;100527.44;18484997;32;20096;-55
2022/08/02 08:42:20;;;;;;;3.95;1.52;;;;;;;31.22;32.53;100540.94;18497001;32;20120;-55
2022/08/02 08:52:25;;;;;;;4.25;1.50;;;;;;;31.23;31.56;100539.94;18494236;32;20455;-56
2022/08/02 09:02:29;;;;;;;3.12;1.40;;;;;;;31.25;31.52;100546.09;18445656;32;20097;-56
2022/08/02 09:12:34;;;;;;;3.87;1.75;;;;;;;30.84;32.16;100549.53;18450364;32;20104;-56
2022/08/02 09:22:37;;;;;;;2.85;1.65;;;;;;;31.30;29.84;100541.13;18497728;32;20122;-56
2022/08/02 09:32:46;;;;;;;3.70;1.85;;;;;;;32.11;30.04;100544.75;18425247;32;20110;-56
2022/08/02 09:42:58;;;;;;;2.97;1.60;;;;;;;31.08;30.10;100543.00;18454226;32;20096;-56
2022/08/02 09:53:03;;;;;;;3.33;1.80;;;;;;;32.24;28.81;100539.09;18470398;32;20432;-56
2022/08/02 10:03:08;;;;;;;3.12;1.50;;;;;;;32.89;26.74;100533.06;18450752;32;20101;-56
2022/08/02 10:13:17;;;;;;;3.33;1.80;;;;;;;32.35;29.06;100520.03;18441796;32;20111;-56
2022/08/02 10:23:26;;;;;;;3.00;1.47;;;;;;;32.17;28.58;100510.94;18439487;32;20672;-57
2022/08/02 10:33:37;;;;;;;2.35;1.50;;;;;;;34.21;26.73;100505.91;18465804;32;20179;-56
2022/08/02 10:43:48;;;;;;;2.03;1.30;;;;;;;34.10;25.78;100498.00;18460456;32;20118;-56
2022/08/02 10:54:08;;;;;;;3.30;1.40;;;;;;;34.93;25.86;100504.06;18490513;32;20108;-56
2022/08/02 11:04:13;;;;;;;2.50;1.58;;;;;;;34.15;26.78;100485.72;18491905;32;20115;-56
2022/08/02 11:14:20;;;;;;;2.67;1.70;;;;;;;34.56;26.60;100487.06;18490526;32;21961;-56
2022/08/02 11:24:28;;;;;;;2.87;1.48;;;;;;;33.03;28.57;100488.53;18476570;32;84389;-56
2022/08/02 11:34:33;;;;;;;2.50;1.30;;;;;;;33.29;28.03;100478.84;18442951;32;20119;-56
2022/08/02 11:44:41;;;;;;;3.25;1.65;;;;;;;34.08;28.06;100468.38;18460884;32;20096;-56
2022/08/02 11:54:49;;;;;;;3.17;1.62;;;;;;;34.09;27.59;100458.41;18472669;32;20093;-56
2022/08/02 12:04:53;;;;;;;3.45;1.42;;;;;;;33.86;30.40;100457.00;18427539;32;20081;-56
2022/08/02 12:15:01;;;;;;;3.92;1.70;;;;;;;33.51;27.46;100449.69;18426719;32;20115;-57
2022/08/02 12:25:17;;;;;;;3.25;1.40;;;;;;;33.69;29.21;100447.03;18430710;32;20115;-56
2022/08/02 12:35:38;;;;;;;3.45;1.65;;;;;;;32.99;30.50;100443.84;18491694;32;20088;-56
2022/08/02 12:45:48;;;;;;;3.33;1.50;;;;;;;32.42;31.24;100439.31;18498557;32;20138;-56
2022/08/02 12:55:56;;;;;;;3.15;1.50;;;;;;;32.49;31.32;100439.59;18495657;32;20100;-56
2022/08/02 13:06:05;;;;;;;1.77;1.30;;;;;;;32.65;31.50;100428.16;18498127;32;20084;-56
2022/08/02 13:16:30;;;;;;;2.80;1.73;;;;;;;31.33;32.00;100427.63;18497790;32;20096;-56
2022/08/02 13:26:33;;;;;;;2.17;1.60;;;;;;;31.34;33.15;100423.06;18495474;32;20104;-56
2022/08/02 13:36:38;;;;;;;2.47;1.40;;;;;;;32.01;32.04;100419.75;18495802;32;20132;-57
2022/08/02 13:46:41;;;;;;;1.92;1.10;;;;;;;33.10;31.63;100401.38;18489046;32;20111;-56
2022/08/02 13:56:49;;;;;;;0.82;0.80;;;;;;;33.95;27.23;100403.78;18482328;32;20794;-56
2022/08/02 14:06:53;;;;;;;0.73;0.60;;;;;;;34.77;25.34;100390.94;18488734;32;20120;-56
2022/08/02 14:17:02;;;;;;;1.05;0.77;;;;;;;35.30;23.91;100390.81;18496220;32;20119;-55
2022/08/02 14:27:05;;;;;;;0.80;0.80;;;;;;;35.17;24.16;100381.28;18459683;32;20140;-56
2022/08/02 14:37:11;;;;;;;1.40;0.80;;;;;;;35.34;23.12;100376.75;18430589;32;20105;-56
2022/08/02 14:47:16;;;;;;;1.73;0.77;;;;;;;34.98;22.95;100364.25;18440002;32;20114;-56
2022/08/02 14:57:24;;;;;;;0.50;0.50;;;;;;;35.05;23.31;100369.91;18437629;32;20107;-55
2022/08/02 15:07:27;;;;;;;1.48;0.70;;;;;;;34.78;23.00;100381.81;18415542;32;20101;-56
2022/08/02 15:17:32;;;;;;;0.82;0.60;;;;;;;34.88;22.92;100384.41;18427656;32;20470;-56
2022/08/02 15:27:36;;;;;;;1.77;0.70;;;;;;;34.66;22.11;100384.81;18461492;32;20135;-56
2022/08/02 15:37:42;;;;;;;1.30;0.80;;;;;;;34.41;22.12;100381.94;18488656;32;20092;-55
2022/08/02 15:47:47;;;;;;;2.35;0.75;;;;;;;33.95;23.02;100374.00;18491984;32;20189;-56
2022/08/02 15:57:54;;;;;;;0.77;0.70;;;;;;;33.84;22.40;100374.25;18495019;32;20157;-56
2022/08/02 16:07:57;;;;;;;1.55;0.88;;;;;;;33.61;22.26;100375.59;18498876;32;20114;-56
2022/08/02 16:18:01;;;;;;;1.45;0.85;;;;;;;33.25;23.27;100385.47;18498609;32;20088;-55
2022/08/02 16:28:05;;;;;;;1.30;0.68;;;;;;;33.10;23.40;100374.34;18498268;32;20092;-55
2022/08/02 16:38:11;;;;;;;6.03;1.15;;;;;;;32.97;23.21;100383.66;18498294;32;20713;-54
2022/08/02 16:48:14;;;;;;;0.90;0.70;;;;;;;32.61;24.52;100394.31;18495645;32;20096;-55
2022/08/02 16:58:20;;;;;;;3.45;0.80;;;;;;;32.57;23.58;100392.94;18496547;32;20119;-55
2022/08/02 17:08:23;;;;;;;1.15;0.80;;;;;;;32.50;24.01;100403.47;18498204;32;20741;-55
2022/08/02 17:18:35;;;;;;;1.50;0.93;;;;;;;32.37;24.92;100412.72;18498942;32;20137;-55
2022/08/02 17:28:44;;;;;;;1.92;0.90;;;;;;;32.00;26.13;100413.47;18498781;32;20119;-54
2022/08/02 17:39:09;;;;;;;3.37;1.20;;;;;;;31.79;26.18;100417.16;18490122;32;20381;-54
2022/08/02 17:49:19;;;;;;;3.30;1.35;;;;;;;31.57;26.82;100429.06;18444172;32;20137;-55
2022/08/02 17:59:27;;;;;;;0.90;0.80;;;;;;;30.90;30.17;100428.72;18446094;32;20141;-55
2022/08/02 18:09:51;;;;;;;2.40;1.00;;;;;;;30.30;32.10;100444.53;18431260;32;20118;-54
2022/08/02 18:19:57;;;;;;;4.03;1.20;;;;;;;29.48;34.62;100452.16;18485706;32;20104;-55
2022/08/02 18:30:14;;;;;;;1.70;1.00;;;;;;;28.41;37.07;100467.69;18491346;32;20657;-55
2022/08/02 18:40:32;;;;;;;2.45;1.23;;;;;;;27.98;37.77;100491.41;18479851;32;20085;-54
2022/08/02 18:50:35;;;;;;;3.58;1.25;;;;;;;27.27;40.68;100492.00;18461660;32;20103;-54
2022/08/02 19:00:40;;;;;;;2.45;1.40;;;;;;;26.92;41.63;100508.78;18495552;32;20138;-55
2022/08/02 19:10:45;;;;;;;1.40;1.00;;;;;;;26.45;42.57;100519.94;18493607;32;20135;-55
2022/08/02 19:20:53;;;;;;;1.52;0.93;;;;;;;26.07;44.26;100513.47;18483586;32;20174;-54
2022/08/02 19:31:03;;;;;;;2.25;1.12;;;;;;;26.02;44.74;100516.44;18491935;32;20112;-54
2022/08/02 19:41:08;;;;;;;1.80;1.00;;;;;;;25.62;46.01;100517.25;18464148;32;20119;-54
2022/08/02 19:51:12;;;;;;;1.60;0.95;;;;;;;25.53;45.62;100522.28;18426030;32;20101;-55
2022/08/02 20:01:17;;;;;;;3.85;1.77;;;;;;;25.43;44.70;100522.84;18427605;32;20097;-54
2022/08/02 20:11:25;;;;;;;3.83;1.45;;;;;;;24.96;44.37;100524.84;18430288;32;20503;-55
2022/08/02 20:21:30;;;;;;;3.20;1.40;;;;;;;24.13;47.76;100544.78;18490324;32;20092;-55
2022/08/02 20:31:39;;;;;;;2.83;1.30;;;;;;;24.57;46.52;100539.63;18486761;32;20122;-55
2022/08/02 20:41:43;;;;;;;4.57;1.37;;;;;;;24.80;46.70;100557.81;18487671;32;20162;-55
2022/08/02 20:51:48;;;;;;;3.22;1.30;;;;;;;24.55;47.59;100574.38;18496601;32;20244;-55
2022/08/02 21:01:53;;;;;;;3.10;1.17;;;;;;;24.31;48.56;100572.19;18497882;32;20107;-55
2022/08/02 21:11:59;;;;;;;1.98;1.12;;;;;;;24.23;49.16;100564.62;18497959;32;20149;-55
2022/08/02 21:22:04;;;;;;;4.30;1.37;;;;;;;24.05;49.75;100557.69;18494248;32;20111;-55
2022/08/02 21:32:07;;;;;;;2.47;1.37;;;;;;;24.01;50.12;100566.78;18494692;32;20084;-55
2022/08/02 21:42:12;;;;;;;1.90;1.30;;;;;;;23.87;51.08;100572.87;18494642;32;20165;-55
2022/08/02 21:52:25;;;;;;;2.72;1.45;;;;;;;23.40;53.13;100565.56;18496346;32;20081;-54
2022/08/02 22:02:29;;;;;;;4.68;2.47;;;;;;;23.30;53.55;100574.16;18464423;32;20130;-54
2022/08/02 22:12:33;;;;;;;3.03;1.48;;;;;;;23.17;53.45;100574.75;18495120;32;20084;-56
2022/08/02 22:22:38;;;;;;;3.25;1.33;;;;;;;23.02;53.64;100592.38;18494324;32;20142;-56
2022/08/02 22:43:03;;;;;;;4.07;1.70;;;;;;;22.78;54.50;100603.34;18430676;32;20148;-55
2022/08/02 22:53:06;;;;;;;2.08;1.35;;;;;;;22.52;55.39;100602.84;18432330;32;20174;-55
2022/08/02 23:03:11;;;;;;;2.50;1.45;;;;;;;22.36;55.99;100605.38;18431620;32;20105;-55
2022/08/02 23:13:14;;;;;;;2.58;1.55;;;;;;;22.34;55.90;100593.97;18428787;32;20144;-55
2022/08/02 23:23:20;;;;;;;2.87;1.30;;;;;;;22.26;56.25;100601.44;18387719;32;20158;-55
2022/08/02 23:33:24;;;;;;;3.20;1.80;;;;;;;22.19;56.71;100614.13;18430467;32;20120;-55
2022/08/02 23:43:28;;;;;;;3.53;1.65;;;;;;;22.15;56.81;100604.59;18430774;32;20478;-55
2022/08/02 23:53:32;;;;;;;2.42;1.60;;;;;;;21.76;58.50;100604.59;18429169;32;20433;-55
